📊 Raw Sensor Data
Showing records 43476 to 43500 of 85,018 total
| ID | Distance (ft) | Battery V | Battery A | Int Temp (°F) | Int Humid (%) | Ext Temp (°F) | Solar V | RSSI | SNR | Time Stamp |
|---|---|---|---|---|---|---|---|---|---|---|
| 41555 | 15.2 | 3.93 | -5 | 57 | 47 | 57 | 0.00 | -69 | 8 | 05/24/2025 09:45 PM |
| 41554 | 15.2 | 3.85 | -5 | 57 | 48 | 58 | 0.00 | -72 | 7 | 05/24/2025 09:30 PM |
| 41553 | 15.2 | 3.86 | -5 | 58 | 49 | 58 | 0.00 | -69 | 8 | 05/24/2025 09:15 PM |
| 41552 | 15.8 | 3.86 | -5 | 59 | 50 | 59 | 0.00 | -69 | 8 | 05/24/2025 09:00 PM |
| 41551 | 15.8 | 3.94 | -5 | 60 | 51 | 60 | 0.10 | -69 | 8 | 05/24/2025 08:45 PM |
| 41550 | 15.8 | 3.94 | -5 | 62 | 53 | 61 | 0.70 | -69 | 6 | 05/24/2025 08:30 PM |
| 41549 | 15.8 | 3.86 | -10 | 65 | 53 | 62 | 4.30 | -70 | 8 | 05/24/2025 08:15 PM |
| 41548 | 15.9 | 3.95 | 0 | 69 | 53 | 65 | 4.50 | -68 | 8 | 05/24/2025 08:00 PM |
| 41547 | 15.9 | 3.89 | 0 | 73 | 52 | 68 | 4.50 | -71 | 7 | 05/24/2025 07:45 PM |
| 41546 | 15.9 | 3.97 | 8 | 75 | 52 | 70 | 4.60 | -69 | 8 | 05/24/2025 07:30 PM |
| 41545 | 16.0 | 3.98 | -6 | 78 | 52 | 73 | 4.50 | -70 | 8 | 05/24/2025 07:15 PM |
| 41544 | 16.0 | 3.92 | 12 | 80 | 51 | 73 | 4.50 | -71 | 8 | 05/24/2025 07:00 PM |
| 41543 | 16.0 | 3.93 | 0 | 83 | 50 | 76 | 5.10 | -70 | 8 | 05/24/2025 06:45 PM |
| 41542 | 16.0 | 3.93 | 0 | 84 | 50 | 78 | 5.10 | -68 | 8 | 05/24/2025 06:30 PM |
| 41541 | 16.0 | 3.93 | 0 | 84 | 50 | 78 | 5.10 | -70 | 8 | 05/24/2025 06:15 PM |
| 41540 | 16.0 | 3.93 | 0 | 86 | 49 | 78 | 5.10 | -70 | 7 | 05/24/2025 06:00 PM |
| 41539 | 16.0 | 3.92 | 0 | 88 | 48 | 80 | 5.10 | -70 | 7 | 05/24/2025 05:45 PM |
| 41538 | 16.0 | 3.92 | 0 | 88 | 48 | 82 | 5.10 | -70 | 8 | 05/24/2025 05:30 PM |
| 41537 | 16.0 | 3.92 | 0 | 89 | 47 | 79 | 5.10 | -69 | 8 | 05/24/2025 05:15 PM |
| 41536 | 16.0 | 4.06 | 0 | 91 | 46 | 82 | 5.10 | -69 | 8 | 05/24/2025 05:00 PM |
| 41535 | 16.0 | 3.92 | 0 | 92 | 46 | 83 | 5.10 | -71 | 7 | 05/24/2025 04:45 PM |
| 41534 | 16.0 | 3.92 | 0 | 92 | 45 | 84 | 5.10 | -70 | 7 | 05/24/2025 04:30 PM |
| 41533 | 16.0 | 3.92 | 0 | 92 | 45 | 85 | 5.10 | -68 | 8 | 05/24/2025 04:15 PM |
| 41532 | 16.0 | 3.92 | 0 | 91 | 45 | 82 | 5.10 | -68 | 7 | 05/24/2025 04:00 PM |
| 41531 | 16.0 | 3.92 | 0 | 92 | 44 | 82 | 5.10 | -69 | 7 | 05/24/2025 03:45 PM |